createdAt,value
2018-09-14T00:00:48.883Z,23.20
2018-09-14T00:03:19.856Z,23.90
2018-09-14T00:05:50.696Z,24.10
2018-09-14T00:08:21.618Z,25.27
2018-09-14T00:10:52.671Z,25.43
2018-09-14T00:13:23.661Z,24.87
2018-09-14T00:15:54.559Z,25.73
2018-09-14T00:18:25.625Z,26.50
2018-09-14T00:20:56.549Z,28.07
2018-09-14T00:23:27.317Z,27.53
2018-09-14T00:25:58.187Z,28.23
2018-09-14T00:28:28.863Z,27.97
2018-09-14T00:30:59.129Z,29.70
2018-09-14T00:33:31.402Z,29.93
2018-09-14T00:36:02.452Z,30.37
2018-09-14T00:38:33.231Z,29.23
2018-09-14T00:41:04.671Z,29.73
2018-09-14T00:43:35.557Z,29.47
2018-09-14T00:46:07.210Z,27.70
2018-09-14T00:48:38.016Z,28.87
2018-09-14T00:51:09.012Z,28.10
2018-09-14T00:53:40.775Z,28.63
2018-09-14T00:56:11.708Z,28.67
2018-09-14T00:58:42.460Z,29.60
2018-09-14T01:01:13.585Z,29.33
2018-09-14T01:03:44.587Z,28.90
2018-09-14T01:06:15.397Z,29.63
2018-09-14T01:08:47.114Z,29.17
2018-09-14T01:11:18.046Z,28.83
2018-09-14T01:13:49.078Z,30.50
2018-09-14T01:16:19.986Z,30.13
2018-09-14T01:18:50.706Z,28.80
2018-09-14T01:21:21.683Z,27.73
2018-09-14T01:23:52.573Z,29.13
2018-09-14T01:26:23.429Z,30.00
2018-09-14T01:28:54.396Z,30.67
2018-09-14T01:31:25.284Z,30.03
2018-09-14T01:33:56.063Z,30.13
2018-09-14T01:36:26.855Z,29.50
2018-09-14T01:38:57.601Z,30.03
2018-09-14T01:41:28.475Z,31.37
2018-09-14T01:43:59.443Z,30.00
2018-09-14T01:46:30.377Z,30.50
2018-09-14T01:49:01.717Z,29.67
2018-09-14T01:51:32.594Z,29.23
2018-09-14T01:54:03.484Z,29.77
2018-09-14T01:56:34.595Z,28.87
2018-09-14T01:59:05.763Z,29.67
2018-09-14T02:01:36.677Z,27.37
2018-09-14T02:04:07.973Z,28.73
2018-09-14T02:06:38.925Z,31.13
2018-09-14T02:09:10.993Z,31.20
2018-09-14T02:11:41.913Z,31.50
2018-09-14T02:14:12.707Z,30.93
2018-09-14T02:16:43.541Z,31.60
2018-09-14T02:19:14.243Z,31.63
2018-09-14T02:21:45.213Z,32.03
2018-09-14T02:24:16.049Z,31.20
2018-09-14T02:26:47.069Z,30.90
2018-09-14T02:29:18.139Z,30.63
2018-09-14T02:31:49.841Z,31.47
2018-09-14T02:34:20.769Z,30.30
2018-09-14T02:36:51.991Z,31.23
2018-09-14T02:39:22.979Z,30.43
2018-09-14T02:41:53.899Z,31.47
2018-09-14T02:44:24.769Z,29.33
2018-09-14T02:46:55.759Z,30.30
2018-09-14T02:49:26.592Z,31.00
2018-09-14T02:51:57.509Z,31.87
2018-09-14T02:54:28.807Z,30.63
2018-09-14T02:56:59.746Z,30.67
2018-09-14T02:59:30.694Z,30.70
2018-09-14T03:02:00.894Z,29.23
2018-09-14T03:04:31.691Z,31.27
2018-09-14T03:07:02.615Z,30.83
2018-09-14T03:09:33.456Z,31.10
2018-09-14T03:12:04.309Z,29.37
2018-09-14T03:14:35.270Z,29.97
2018-09-14T03:17:06.583Z,31.07
2018-09-14T03:19:37.635Z,30.93
2018-09-14T03:22:08.490Z,29.57
2018-09-14T03:24:39.524Z,31.50
2018-09-14T03:27:10.434Z,31.90
2018-09-14T03:29:42.837Z,31.07
2018-09-14T03:32:13.821Z,32.17
2018-09-14T03:34:45.170Z,31.93
2018-09-14T03:37:16.050Z,32.53
2018-09-14T03:39:46.875Z,33.60
2018-09-14T03:42:17.795Z,30.63
2018-09-14T03:44:48.929Z,30.50
2018-09-14T03:47:19.759Z,31.37
2018-09-14T03:49:50.474Z,33.13
2018-09-14T03:52:21.573Z,31.90
2018-09-14T03:54:52.379Z,31.93
2018-09-14T03:57:23.323Z,33.10
2018-09-14T03:59:54.363Z,32.80
2018-09-14T04:02:24.837Z,32.00
2018-09-14T04:04:55.219Z,31.83
2018-09-14T04:07:26.100Z,30.57
2018-09-14T04:09:56.958Z,31.53
2018-09-14T04:12:27.125Z,31.53
2018-09-14T04:14:57.533Z,31.43
2018-09-14T04:17:28.597Z,29.57
2018-09-14T04:19:59.790Z,30.77
2018-09-14T04:22:30.060Z,31.50
2018-09-14T04:25:00.365Z,28.63
2018-09-14T04:27:31.298Z,29.03
2018-09-14T04:30:02.188Z,27.10
2018-09-14T04:32:32.263Z,28.53
2018-09-14T04:35:02.565Z,27.60
2018-09-14T04:37:33.622Z,29.60
2018-09-14T04:40:05.380Z,28.17
2018-09-14T04:42:35.915Z,30.53
2018-09-14T04:45:06.149Z,27.83
2018-09-14T04:47:37.624Z,29.10
2018-09-14T04:50:08.838Z,31.10
2018-09-14T04:52:39.119Z,31.20
2018-09-14T04:55:09.666Z,30.90
2018-09-14T04:57:40.877Z,30.17
2018-09-14T05:00:12.026Z,31.73
2018-09-14T05:02:42.323Z,30.97
2018-09-14T05:05:13.905Z,30.20
2018-09-14T05:07:45.131Z,27.93
2018-09-14T05:10:14.849Z,26.00
2018-09-14T05:12:45.186Z,27.80
2018-09-14T05:15:15.567Z,27.83
2018-09-14T05:17:46.705Z,28.40
2018-09-14T05:20:16.997Z,28.97
2018-09-14T05:22:48.630Z,28.03
2018-09-14T05:25:19.592Z,26.50
2018-09-14T05:27:50.656Z,26.77
2018-09-14T05:30:20.929Z,27.33
2018-09-14T05:32:51.284Z,26.23
2018-09-14T05:35:22.786Z,25.27
2018-09-14T05:37:54.048Z,23.20
2018-09-14T05:40:24.405Z,22.40
2018-09-14T05:42:54.984Z,20.13
2018-09-14T05:45:26.410Z,20.60
2018-09-14T05:47:57.607Z,19.90
2018-09-14T05:50:28.096Z,20.90
2018-09-14T05:52:58.743Z,20.00
2018-09-14T05:55:29.724Z,19.63
2018-09-14T05:58:01.070Z,19.60
2018-09-14T06:00:31.560Z,16.73
2018-09-14T06:03:01.859Z,18.17
2018-09-14T06:05:33.101Z,18.20
2018-09-14T06:08:04.235Z,17.93
2018-09-14T06:10:34.651Z,17.93
2018-09-14T06:13:04.987Z,18.93
2018-09-14T06:15:36.229Z,17.03
2018-09-14T06:18:08.042Z,14.97
2018-09-14T06:20:38.254Z,14.90
2018-09-14T06:23:08.606Z,15.20
2018-09-14T06:25:39.948Z,14.57
2018-09-14T06:28:10.754Z,16.73
2018-09-14T06:30:41.011Z,17.70
2018-09-14T06:33:11.464Z,17.47
2018-09-14T06:35:42.492Z,17.63
2018-09-14T06:38:13.786Z,18.03
2018-09-14T06:40:44.366Z,16.90
2018-09-14T06:43:15.010Z,17.27
2018-09-14T06:45:45.976Z,18.87
2018-09-14T06:48:16.510Z,16.87
2018-09-14T06:50:46.882Z,16.67
2018-09-14T06:53:17.664Z,17.27
2018-09-14T06:55:49.006Z,16.87
2018-09-14T06:58:19.550Z,17.37
2018-09-14T07:00:49.942Z,15.60
2018-09-14T07:03:21.290Z,16.47
2018-09-14T07:05:52.420Z,16.00
2018-09-14T07:08:22.904Z,17.17
2018-09-14T07:10:53.303Z,17.07
2018-09-14T07:13:24.549Z,17.47
2018-09-14T07:15:55.796Z,15.63
2018-09-14T07:18:26.433Z,16.47
2018-09-14T07:20:56.932Z,16.07
2018-09-14T07:23:28.139Z,16.50
2018-09-14T07:25:59.189Z,16.13
2018-09-14T07:28:29.552Z,15.80
2018-09-14T07:31:00.065Z,16.57
2018-09-14T07:33:31.348Z,15.90
2018-09-14T07:36:02.755Z,16.37
2018-09-14T07:38:33.093Z,17.13
2018-09-14T07:41:05.063Z,15.80
2018-09-14T07:43:36.198Z,16.57
2018-09-14T07:46:07.249Z,15.43
2018-09-14T07:48:37.560Z,15.67
2018-09-14T07:51:07.908Z,15.47
2018-09-14T07:53:38.988Z,17.17
2018-09-14T07:56:09.950Z,17.20
2018-09-14T07:58:40.405Z,17.47
2018-09-14T08:01:10.774Z,17.13
2018-09-14T08:03:41.897Z,15.40
2018-09-14T08:06:13.780Z,17.50
2018-09-14T08:08:44.665Z,17.53
2018-09-14T08:11:15.176Z,16.30
2018-09-14T08:13:46.746Z,16.43
2018-09-14T08:16:17.308Z,15.70
2018-09-14T08:18:48.440Z,15.03
2018-09-14T08:21:19.557Z,13.70
2018-09-14T08:23:51.832Z,14.70
2018-09-14T08:26:23.363Z,15.50
2018-09-14T08:28:53.942Z,15.67
2018-09-14T08:31:25.280Z,14.90
2018-09-14T08:33:58.052Z,15.20
2018-09-14T08:36:28.459Z,14.20
2018-09-14T08:38:58.806Z,13.73
2018-09-14T08:41:29.680Z,12.50
2018-09-14T08:44:01.110Z,11.83
2018-09-14T08:46:31.061Z,11.60
2018-09-14T08:49:01.693Z,12.47
2018-09-14T08:51:32.736Z,13.33
2018-09-14T08:54:04.016Z,13.30
2018-09-14T08:56:34.450Z,13.97
2018-09-14T08:59:04.968Z,15.33
2018-09-14T09:01:36.006Z,14.10
2018-09-14T09:04:07.136Z,14.10
2018-09-14T09:06:37.550Z,15.40
2018-09-14T09:09:10.732Z,13.53
2018-09-14T09:11:42.096Z,13.93
2018-09-14T09:14:13.580Z,13.30
2018-09-14T09:16:44.020Z,12.97
2018-09-14T09:19:14.477Z,14.20
2018-09-14T09:21:45.763Z,11.97
2018-09-14T09:24:16.390Z,12.53
2018-09-14T09:26:47.036Z,13.67
2018-09-14T09:29:18.081Z,13.73
2018-09-14T09:31:49.943Z,12.03
2018-09-14T09:34:21.129Z,13.93
2018-09-14T09:36:51.405Z,13.60
2018-09-14T09:39:22.851Z,12.97
2018-09-14T09:41:54.349Z,12.80
2018-09-14T09:44:24.698Z,13.63
2018-09-14T09:46:55.192Z,13.63
2018-09-14T09:49:26.417Z,14.40
2018-09-14T09:51:57.375Z,14.57
2018-09-14T09:54:27.792Z,14.13
2018-09-14T09:56:58.358Z,13.30
2018-09-14T09:59:29.320Z,13.60
2018-09-14T10:02:05.604Z,12.97
2018-09-14T10:05:45.287Z,11.47
2018-09-14T10:08:15.758Z,11.57
2018-09-14T10:10:46.372Z,11.20
2018-09-14T10:13:17.248Z,9.90
2018-09-14T10:15:48.380Z,11.43
2018-09-14T10:18:19.339Z,11.07
2018-09-14T10:20:49.911Z,10.17
2018-09-14T10:23:21.147Z,10.63
2018-09-14T10:25:52.224Z,11.05
2018-09-14T10:28:23.200Z,13.43
2018-09-14T10:30:54.260Z,10.20
2018-09-14T10:33:26.072Z,8.58
2018-09-14T10:35:58.123Z,8.88
2018-09-14T10:38:29.187Z,8.60
2018-09-14T10:41:00.061Z,9.25
2018-09-14T10:43:31.691Z,9.43
2018-09-14T10:46:03.460Z,9.45
2018-09-14T10:48:34.759Z,9.48
2018-09-14T10:51:06.025Z,9.23
2018-09-14T10:53:38.265Z,9.70
2018-09-14T10:56:10.309Z,8.33
2018-09-14T10:58:42.427Z,9.50
2018-09-14T11:01:15.468Z,8.83
2018-09-14T11:03:47.535Z,9.63
2018-09-14T11:06:18.806Z,8.58
2018-09-14T11:08:50.049Z,8.90
2018-09-14T11:11:21.677Z,7.40
2018-09-14T11:13:53.848Z,7.70
2018-09-14T11:16:25.091Z,8.65
2018-09-14T11:18:57.134Z,8.70
2018-09-14T11:21:29.387Z,9.20
2018-09-14T11:24:01.283Z,10.43
2018-09-14T11:26:35.467Z,8.50
2018-09-14T11:29:08.435Z,8.38
2018-09-14T11:31:40.102Z,8.90
2018-09-14T11:34:11.173Z,9.90
2018-09-14T11:36:42.192Z,10.70
2018-09-14T11:39:13.312Z,9.30
2018-09-14T11:41:45.203Z,9.10
2018-09-14T11:44:16.271Z,9.05
2018-09-14T11:46:47.340Z,8.65
2018-09-14T11:49:19.957Z,8.95
2018-09-14T11:51:51.861Z,8.30
2018-09-14T11:54:24.241Z,7.83
2018-09-14T11:56:55.942Z,7.42
2018-09-14T11:59:27.507Z,8.20
2018-09-14T12:01:59.148Z,9.53
2018-09-14T12:04:31.332Z,7.92
2018-09-14T12:07:02.334Z,6.90
2018-09-14T12:09:33.806Z,7.22
2018-09-14T12:12:05.440Z,7.10
2018-09-14T12:14:36.483Z,8.18
2018-09-14T12:17:07.592Z,7.08
2018-09-14T12:19:39.249Z,9.38
2018-09-14T12:22:10.833Z,10.55
2018-09-14T12:24:41.897Z,10.13
2018-09-14T12:27:13.387Z,10.00
2018-09-14T12:29:45.445Z,8.08
2018-09-14T12:32:16.497Z,9.18
2018-09-14T12:34:47.442Z,9.00
2018-09-14T12:37:19.151Z,9.50
2018-09-14T12:39:51.819Z,7.78
2018-09-14T12:42:23.244Z,7.08
2018-09-14T12:44:54.389Z,6.55
2018-09-14T12:47:26.405Z,7.37
2018-09-14T12:49:58.103Z,8.10
2018-09-14T12:52:29.346Z,7.62
2018-09-14T12:55:00.331Z,6.47
2018-09-14T12:57:31.955Z,7.65
2018-09-14T13:00:04.173Z,7.35
2018-09-14T13:02:36.098Z,7.22
2018-09-14T13:05:07.923Z,7.45
2018-09-14T13:07:39.869Z,8.05
2018-09-14T13:10:11.264Z,7.65
2018-09-14T13:12:43.603Z,7.83
2018-09-14T13:15:14.642Z,7.78
2018-09-14T13:17:46.363Z,8.18
2018-09-14T13:20:17.282Z,6.65
2018-09-14T13:22:48.350Z,7.03
2018-09-14T13:25:20.476Z,7.33
2018-09-14T13:27:52.347Z,6.47
2018-09-14T13:30:23.689Z,7.20
2018-09-14T13:32:54.947Z,6.90
2018-09-14T13:35:26.464Z,7.15
2018-09-14T13:37:57.980Z,6.85
2018-09-14T13:40:29.455Z,7.00
2018-09-14T13:43:00.386Z,7.75
2018-09-14T13:45:33.173Z,7.25
2018-09-14T13:48:04.722Z,7.20
2018-09-14T13:50:35.798Z,6.90
2018-09-14T13:53:06.845Z,7.28
2018-09-14T13:55:39.727Z,6.62
2018-09-14T13:58:11.183Z,6.47
2018-09-14T14:00:42.183Z,6.78
2018-09-14T14:03:12.997Z,6.83
2018-09-14T14:05:44.536Z,6.58
2018-09-14T14:08:16.351Z,6.83
2018-09-14T14:10:47.402Z,6.12
2018-09-14T14:13:19.264Z,5.97
2018-09-14T14:15:50.809Z,5.90
2018-09-14T14:18:22.491Z,5.25
2018-09-14T14:20:54.619Z,5.58
2018-09-14T14:23:26.325Z,6.15
2018-09-14T14:25:58.229Z,5.62
2018-09-14T14:28:29.231Z,5.50
2018-09-14T14:31:00.817Z,5.83
2018-09-14T14:33:32.440Z,5.35
2018-09-14T14:36:04.479Z,6.03
2018-09-14T14:38:35.543Z,6.20
2018-09-14T14:41:06.469Z,7.00
2018-09-14T14:43:38.249Z,6.37
2018-09-14T14:46:09.726Z,6.58
2018-09-14T14:48:40.702Z,6.33
2018-09-14T14:51:12.782Z,5.90
2018-09-14T14:53:44.743Z,5.90
2018-09-14T14:56:16.384Z,6.12
2018-09-14T14:58:47.649Z,5.55
2018-09-14T15:01:19.430Z,4.85
2018-09-14T15:03:51.160Z,6.15
2018-09-14T15:06:22.164Z,6.75
2018-09-14T15:08:53.311Z,6.72
2018-09-14T15:11:25.815Z,6.80
2018-09-14T15:13:57.501Z,8.03
2018-09-14T15:16:29.845Z,7.53
2018-09-14T15:19:00.709Z,7.28
2018-09-14T15:21:32.659Z,7.03
2018-09-14T15:24:04.501Z,7.00
2018-09-14T15:26:35.695Z,7.17
2018-09-14T15:29:06.857Z,6.83
2018-09-14T15:31:38.645Z,7.12
2018-09-14T15:34:09.889Z,6.87
2018-09-14T15:36:42.497Z,6.95
2018-09-14T15:39:13.993Z,6.78
2018-09-14T15:41:45.571Z,6.85
2018-09-14T15:44:16.428Z,6.80
2018-09-14T15:46:47.543Z,7.25
2018-09-14T15:49:19.162Z,6.90
2018-09-14T15:51:51.026Z,6.97
2018-09-14T15:54:21.986Z,6.35
2018-09-14T15:56:52.769Z,6.80
2018-09-14T15:59:24.486Z,7.35
2018-09-14T16:01:56.247Z,7.45
2018-09-14T16:04:27.905Z,6.70
2018-09-14T16:06:58.631Z,6.87
2018-09-14T16:09:30.247Z,7.03
2018-09-14T16:12:01.677Z,6.65
2018-09-14T16:14:32.472Z,6.45
2018-09-14T16:17:03.543Z,6.10
2018-09-14T16:19:35.194Z,6.35
2018-09-14T16:22:06.977Z,6.45
2018-09-14T16:24:37.778Z,7.28
2018-09-14T16:27:08.862Z,6.20
2018-09-14T16:29:40.574Z,6.35
2018-09-14T16:32:12.064Z,7.08
2018-09-14T16:34:42.983Z,6.83
2018-09-14T16:37:13.996Z,6.70
2018-09-14T16:39:46.014Z,7.00
2018-09-14T16:42:17.506Z,7.15
2018-09-14T16:44:48.366Z,6.53
2018-09-14T16:47:20.502Z,6.40
2018-09-14T16:49:52.269Z,7.60
2018-09-14T16:52:23.441Z,7.15
2018-09-14T16:54:54.548Z,8.53
2018-09-14T16:57:26.105Z,7.10
2018-09-14T16:59:57.828Z,7.20
2018-09-14T17:02:28.663Z,6.08
2018-09-14T17:04:59.751Z,6.03
2018-09-14T17:07:31.080Z,6.75
2018-09-14T17:10:02.000Z,9.87
2018-09-14T17:12:32.123Z,7.80
2018-09-14T17:15:02.534Z,7.63
2018-09-14T17:17:33.604Z,21.73
2018-09-14T17:20:04.805Z,17.47
2018-09-14T17:22:35.447Z,8.07
2018-09-14T17:25:06.099Z,16.43
2018-09-14T17:27:37.214Z,8.77
2018-09-14T17:30:08.303Z,9.27
2018-09-14T17:32:38.706Z,16.70
2018-09-14T17:35:09.373Z,9.20
2018-09-14T17:37:40.458Z,7.77
2018-09-14T17:40:11.170Z,7.83
2018-09-14T17:42:43.826Z,7.20
2018-09-14T17:45:14.325Z,6.90
2018-09-14T17:47:45.510Z,45.83
2018-09-14T17:50:15.085Z,10.13
2018-09-14T17:52:45.552Z,29.87
2018-09-14T17:55:17.196Z,8.83
2018-09-14T17:57:48.321Z,7.60
2018-09-14T18:00:18.709Z,7.40
2018-09-14T18:02:50.316Z,10.67
2018-09-14T18:05:21.367Z,8.63
2018-09-14T18:07:52.416Z,9.50
2018-09-14T18:10:22.829Z,11.60
2018-09-14T18:12:53.097Z,10.37
2018-09-14T18:15:24.419Z,17.23
2018-09-14T18:17:55.394Z,17.43
2018-09-14T18:20:25.907Z,15.00
2018-09-14T18:22:56.339Z,15.77
2018-09-14T18:25:27.427Z,23.90
2018-09-14T18:27:58.492Z,26.47
2018-09-14T18:30:29.210Z,41.80
2018-09-14T18:32:59.522Z,33.23
2018-09-14T18:35:30.663Z,21.73
2018-09-14T18:38:02.084Z,24.20
2018-09-14T18:40:32.656Z,21.33
2018-09-14T18:43:03.050Z,15.00
2018-09-14T18:45:34.083Z,49.27
2018-09-14T18:48:05.473Z,18.00
2018-09-14T18:50:36.139Z,24.07
2018-09-14T18:53:07.851Z,16.07
2018-09-14T18:55:39.553Z,111.37
2018-09-14T18:58:10.499Z,48.23
2018-09-14T19:00:40.960Z,52.10
2018-09-14T19:03:12.555Z,17.57
2018-09-14T19:05:43.680Z,20.63
2018-09-14T19:08:14.934Z,15.70
2018-09-14T19:10:45.417Z,16.60
2018-09-14T19:13:16.873Z,12.97
2018-09-14T19:15:48.212Z,28.97
2018-09-14T19:18:18.704Z,23.33
2018-09-14T19:20:49.136Z,15.47
2018-09-14T19:23:20.206Z,12.97
2018-09-14T19:25:51.327Z,12.60
2018-09-14T19:28:21.769Z,13.20
2018-09-14T19:30:52.369Z,12.70
2018-09-14T19:33:23.434Z,12.73
2018-09-14T19:35:54.761Z,13.37
2018-09-14T19:38:25.583Z,14.07
2018-09-14T19:40:56.369Z,11.97
2018-09-14T19:43:27.463Z,13.23
2018-09-14T19:45:58.780Z,13.53
2018-09-14T19:48:29.056Z,14.00
2018-09-14T19:50:59.380Z,13.07
2018-09-14T19:53:30.419Z,13.17
2018-09-14T19:56:01.378Z,14.70
2018-09-14T19:58:31.423Z,14.87
2018-09-14T20:01:02.545Z,13.63
2018-09-14T20:03:33.610Z,13.93
2018-09-14T20:06:04.789Z,13.20
2018-09-14T20:08:35.745Z,13.30
2018-09-14T20:11:06.945Z,14.67
2018-09-14T20:13:37.818Z,13.43
2018-09-14T20:16:08.813Z,16.13
2018-09-14T20:18:40.078Z,17.23
2018-09-14T20:21:11.415Z,15.97
2018-09-14T20:23:42.261Z,15.30
2018-09-14T20:26:13.180Z,15.40
2018-09-14T20:28:43.991Z,14.50
2018-09-14T20:31:14.995Z,15.60
2018-09-14T20:33:45.739Z,16.10
2018-09-14T20:36:16.473Z,17.97
2018-09-14T20:38:47.838Z,16.90
2018-09-14T20:41:18.845Z,17.50
2018-09-14T20:43:49.998Z,17.53
2018-09-14T20:46:21.338Z,16.20
2018-09-14T20:48:52.982Z,16.23
2018-09-14T20:51:24.878Z,22.07
2018-09-14T20:53:55.859Z,25.60
2018-09-14T20:56:26.896Z,19.93
2018-09-14T20:58:57.743Z,21.77
2018-09-14T21:01:28.526Z,28.53
2018-09-14T21:03:59.340Z,20.10
2018-09-14T21:06:30.666Z,17.00
2018-09-14T21:09:01.984Z,17.07
2018-09-14T21:11:32.698Z,17.80
2018-09-14T21:14:04.090Z,20.40
2018-09-14T21:16:35.515Z,17.87
2018-09-14T21:19:06.685Z,17.60
2018-09-14T21:21:37.976Z,23.10
2018-09-14T21:24:08.861Z,19.13
2018-09-14T21:26:39.819Z,17.37
2018-09-14T21:29:10.486Z,16.33
2018-09-14T21:31:41.601Z,16.20
2018-09-14T21:34:13.213Z,20.33
2018-09-14T21:36:44.823Z,31.37
2018-09-14T21:39:16.055Z,40.17
2018-09-14T21:41:47.226Z,16.53
2018-09-14T21:44:17.959Z,16.17
2018-09-14T21:46:48.685Z,18.13
2018-09-14T21:49:19.591Z,16.83
2018-09-14T21:51:51.213Z,17.43
2018-09-14T21:54:22.244Z,17.37
2018-09-14T21:56:53.325Z,17.63
2018-09-14T21:59:24.492Z,17.13
2018-09-14T22:01:55.617Z,15.87
2018-09-14T22:04:26.553Z,17.03
2018-09-14T22:06:57.469Z,17.07
2018-09-14T22:09:28.572Z,16.43
2018-09-14T22:11:59.508Z,16.97
2018-09-14T22:14:30.795Z,17.63
2018-09-14T22:17:01.694Z,16.10
2018-09-14T22:19:32.553Z,16.93
2018-09-14T22:22:03.718Z,18.17
2018-09-14T22:24:35.150Z,16.67
2018-09-14T22:27:06.473Z,16.83
2018-09-14T22:29:38.206Z,19.47
2018-09-14T22:32:09.546Z,17.33
2018-09-14T22:34:40.350Z,18.17
2018-09-14T22:37:11.234Z,16.73
2018-09-14T22:39:42.742Z,17.00
2018-09-14T22:42:14.302Z,17.13
2018-09-14T22:44:45.159Z,16.80
2018-09-14T22:47:16.036Z,17.07
2018-09-14T22:49:46.818Z,16.63
2018-09-14T22:52:17.838Z,17.07
2018-09-14T22:54:48.668Z,16.13
2018-09-14T22:57:19.714Z,15.97
2018-09-14T22:59:50.526Z,16.37
2018-09-14T23:02:21.486Z,16.70
2018-09-14T23:04:52.196Z,16.23
2018-09-14T23:07:23.072Z,16.57
2018-09-14T23:09:54.475Z,17.30
2018-09-14T23:12:25.323Z,16.67
2018-09-14T23:14:56.232Z,16.87
2018-09-14T23:17:27.118Z,16.77
2018-09-14T23:19:57.930Z,17.93
2018-09-14T23:22:28.821Z,17.47
2018-09-14T23:24:59.807Z,18.73
2018-09-14T23:27:30.561Z,17.13
2018-09-14T23:30:01.274Z,16.27
2018-09-14T23:32:32.257Z,16.80
2018-09-14T23:35:03.437Z,15.97
2018-09-14T23:37:34.449Z,15.93
2018-09-14T23:40:05.501Z,15.33
2018-09-14T23:42:36.426Z,15.77
2018-09-14T23:45:07.319Z,15.27
2018-09-14T23:47:38.315Z,15.33
2018-09-14T23:50:09.673Z,14.83
2018-09-14T23:52:40.679Z,14.83
2018-09-14T23:55:11.601Z,15.27
2018-09-14T23:57:42.622Z,15.37
